sensor_id;sensor_type;location;lat;lon;timestamp;pressure;altitude;pressure_sealevel;temperature;humidity
43312;BME280;30041;48.300;16.352;2022-08-01T00:01:20;99600.72;;;23.65;50.39
43312;BME280;30041;48.300;16.352;2022-08-01T00:03:46;99601.53;;;23.65;50.43
43312;BME280;30041;48.300;16.352;2022-08-01T00:06:12;99604.22;;;23.65;50.68
43312;BME280;30041;48.300;16.352;2022-08-01T00:08:37;99598.81;;;23.65;50.68
43312;BME280;30041;48.300;16.352;2022-08-01T00:11:03;99598.81;;;23.65;50.75
43312;BME280;30041;48.300;16.352;2022-08-01T00:13:28;99593.41;;;23.65;50.56
43312;BME280;30041;48.300;16.352;2022-08-01T00:15:54;99591.75;;;23.64;50.63
43312;BME280;30041;48.300;16.352;2022-08-01T00:18:20;99590.94;;;23.63;51.04
43312;BME280;30041;48.300;16.352;2022-08-01T00:20:46;99594.72;;;23.62;50.70
43312;BME280;30041;48.300;16.352;2022-08-01T00:23:12;99588.47;;;23.62;50.94
43312;BME280;30041;48.300;16.352;2022-08-01T00:25:37;99585.53;;;23.63;50.74
43312;BME280;30041;48.300;16.352;2022-08-01T00:28:03;99592.84;;;23.63;50.73
43312;BME280;30041;48.300;16.352;2022-08-01T00:30:31;99586.63;;;23.62;51.09
43312;BME280;30041;48.300;16.352;2022-08-01T00:32:57;99582.00;;;23.63;51.00
43312;BME280;30041;48.300;16.352;2022-08-01T00:35:23;99588.25;;;23.63;50.96
43312;BME280;30041;48.300;16.352;2022-08-01T00:37:49;99592.59;;;23.65;51.25
43312;BME280;30041;48.300;16.352;2022-08-01T00:40:14;99589.88;;;23.65;51.08
43312;BME280;30041;48.300;16.352;2022-08-01T00:42:40;99589.31;;;23.62;51.01
43312;BME280;30041;48.300;16.352;2022-08-01T00:45:06;99586.63;;;23.62;50.92
43312;BME280;30041;48.300;16.352;2022-08-01T00:47:32;99599.88;;;23.64;51.27
43312;BME280;30041;48.300;16.352;2022-08-01T00:49:58;99592.84;;;23.63;51.27
43312;BME280;30041;48.300;16.352;2022-08-01T00:52:24;99592.84;;;23.63;51.28
43312;BME280;30041;48.300;16.352;2022-08-01T00:54:50;99598.50;;;23.61;50.95
43312;BME280;30041;48.300;16.352;2022-08-01T00:57:16;99600.97;;;23.63;51.11
43312;BME280;30041;48.300;16.352;2022-08-01T00:59:42;99601.75;;;23.63;51.35
43312;BME280;30041;48.300;16.352;2022-08-01T01:02:07;99597.44;;;23.62;51.06
43312;BME280;30041;48.300;16.352;2022-08-01T01:04:33;99599.06;;;23.63;51.35
43312;BME280;30041;48.300;16.352;2022-08-01T01:07:24;99594.72;;;23.62;51.04
43312;BME280;30041;48.300;16.352;2022-08-01T01:10:16;99589.56;;;23.61;51.28
43312;BME280;30041;48.300;16.352;2022-08-01T01:12:50;99595.31;;;23.65;51.03
43312;BME280;30041;48.300;16.352;2022-08-01T01:15:22;99592.59;;;23.65;51.24
43312;BME280;30041;48.300;16.352;2022-08-01T01:17:57;99592.59;;;23.65;51.32
43312;BME280;30041;48.300;16.352;2022-08-01T01:20:31;99589.56;;;23.61;51.23
43312;BME280;30041;48.300;16.352;2022-08-01T01:26:21;99587.94;;;23.60;51.33
43312;BME280;30041;48.300;16.352;2022-08-01T01:29:17;99591.47;;;23.60;51.58
43312;BME280;30041;48.300;16.352;2022-08-01T01:31:51;99591.47;;;23.60;51.68
43312;BME280;30041;48.300;16.352;2022-08-01T01:34:20;99586.88;;;23.61;51.65
43312;BME280;30041;48.300;16.352;2022-08-01T01:36:48;99586.63;;;23.62;51.48
43312;BME280;30041;48.300;16.352;2022-08-01T01:39:16;99577.66;;;23.62;51.66
43312;BME280;30041;48.300;16.352;2022-08-01T01:41:43;99571.44;;;23.61;51.50
43312;BME280;30041;48.300;16.352;2022-08-01T01:44:10;99577.66;;;23.62;51.80
43312;BME280;30041;48.300;16.352;2022-08-01T01:46:36;99582.25;;;23.61;51.56
43312;BME280;30041;48.300;16.352;2022-08-01T01:49:03;99568.72;;;23.61;51.69
43312;BME280;30041;48.300;16.352;2022-08-01T01:51:29;99564.41;;;23.60;51.76
43312;BME280;30041;48.300;16.352;2022-08-01T01:53:56;99577.66;;;23.62;51.92
43312;BME280;30041;48.300;16.352;2022-08-01T01:56:24;99577.13;;;23.60;51.67
43312;BME280;30041;48.300;16.352;2022-08-01T01:58:56;99577.13;;;23.60;51.79
43312;BME280;30041;48.300;16.352;2022-08-01T02:01:27;99580.38;;;23.62;51.67
43312;BME280;30041;48.300;16.352;2022-08-01T02:03:55;99580.38;;;23.62;51.59
43312;BME280;30041;48.300;16.352;2022-08-01T02:06:22;99581.22;;;23.62;51.50
43312;BME280;30041;48.300;16.352;2022-08-01T02:08:49;99577.66;;;23.62;51.46
43312;BME280;30041;48.300;16.352;2022-08-01T02:11:15;99578.22;;;23.64;51.80
43312;BME280;30041;48.300;16.352;2022-08-01T02:13:41;99573.66;;;23.65;51.54
43312;BME280;30041;48.300;16.352;2022-08-01T02:16:09;99578.22;;;23.64;51.72
43312;BME280;30041;48.300;16.352;2022-08-01T02:18:35;99563.06;;;23.63;51.53
43312;BME280;30041;48.300;16.352;2022-08-01T02:21:03;99570.38;;;23.62;51.40
43312;BME280;30041;48.300;16.352;2022-08-01T02:23:34;99570.09;;;23.64;51.57
43312;BME280;30041;48.300;16.352;2022-08-01T02:26:03;99571.19;;;23.63;51.56
43312;BME280;30041;48.300;16.352;2022-08-01T02:28:36;99566.84;;;23.62;51.64
43312;BME280;30041;48.300;16.352;2022-08-01T02:31:08;99571.19;;;23.63;51.31
43312;BME280;30041;48.300;16.352;2022-08-01T02:33:39;99571.44;;;23.61;51.53
43312;BME280;30041;48.300;16.352;2022-08-01T02:36:06;99565.78;;;23.63;51.76
43312;BME280;30041;48.300;16.352;2022-08-01T02:38:37;99567.69;;;23.62;51.60
43312;BME280;30041;48.300;16.352;2022-08-01T02:41:09;99562.00;;;23.64;51.35
43312;BME280;30041;48.300;16.352;2022-08-01T02:43:41;99565.53;;;23.65;51.41
43312;BME280;30041;48.300;16.352;2022-08-01T02:46:09;99568.81;;;23.67;51.42
43312;BME280;30041;48.300;16.352;2022-08-01T02:48:38;99562.00;;;23.64;51.44
43312;BME280;30041;48.300;16.352;2022-08-01T02:51:06;99553.63;;;23.66;51.54
43312;BME280;30041;48.300;16.352;2022-08-01T02:53:34;99556.59;;;23.64;51.44
43312;BME280;30041;48.300;16.352;2022-08-01T02:56:03;99563.13;;;23.68;51.60
43312;BME280;30041;48.300;16.352;2022-08-01T02:58:29;99552.81;;;23.65;51.39
43312;BME280;30041;48.300;16.352;2022-08-01T03:00:57;99558.00;;;23.67;51.60
43312;BME280;30041;48.300;16.352;2022-08-01T03:03:23;99555.28;;;23.67;51.37
43312;BME280;30041;48.300;16.352;2022-08-01T03:05:49;99558.81;;;23.67;51.58
43312;BME280;30041;48.300;16.352;2022-08-01T03:08:16;99561.75;;;23.66;51.58
43312;BME280;30041;48.300;16.352;2022-08-01T03:10:45;99559.84;;;23.66;51.66
43312;BME280;30041;48.300;16.352;2022-08-01T03:13:13;99555.78;;;23.63;51.79
43312;BME280;30041;48.300;16.352;2022-08-01T03:15:42;99566.59;;;23.63;51.60
43312;BME280;30041;48.300;16.352;2022-08-01T03:18:10;99561.19;;;23.63;51.93
43312;BME280;30041;48.300;16.352;2022-08-01T03:20:36;99565.53;;;23.65;52.07
43312;BME280;30041;48.300;16.352;2022-08-01T03:23:05;99564.69;;;23.64;51.94
43312;BME280;30041;48.300;16.352;2022-08-01T03:25:32;99563.66;;;23.65;51.94
43312;BME280;30041;48.300;16.352;2022-08-01T03:28:03;99566.34;;;23.65;51.78
43312;BME280;30041;48.300;16.352;2022-08-01T03:30:30;99562.00;;;23.64;51.76
43312;BME280;30041;48.300;16.352;2022-08-01T03:32:57;99559.28;;;23.64;52.06
43312;BME280;30041;48.300;16.352;2022-08-01T03:35:29;99564.69;;;23.64;52.13
43312;BME280;30041;48.300;16.352;2022-08-01T03:37:55;99558.47;;;23.63;51.89
43312;BME280;30041;48.300;16.352;2022-08-01T03:40:24;99562.56;;;23.66;51.99
43312;BME280;30041;48.300;16.352;2022-08-01T03:43:01;99564.69;;;23.64;52.20
43312;BME280;30041;48.300;16.352;2022-08-01T03:45:35;99557.41;;;23.65;51.74
43312;BME280;30041;48.300;16.352;2022-08-01T03:48:12;99564.69;;;23.64;52.15
43312;BME280;30041;48.300;16.352;2022-08-01T03:50:46;99557.41;;;23.65;51.93
43312;BME280;30041;48.300;16.352;2022-08-01T03:53:13;99557.66;;;23.63;52.03
43312;BME280;30041;48.300;16.352;2022-08-01T03:55:41;99556.59;;;23.64;52.23
43312;BME280;30041;48.300;16.352;2022-08-01T03:58:09;99552.00;;;23.65;52.10
43312;BME280;30041;48.300;16.352;2022-08-01T04:00:36;99555.53;;;23.65;52.17
43312;BME280;30041;48.300;16.352;2022-08-01T04:03:03;99563.88;;;23.63;52.24
43312;BME280;30041;48.300;16.352;2022-08-01T04:05:28;99564.44;;;23.66;51.94
43312;BME280;30041;48.300;16.352;2022-08-01T04:07:54;99563.66;;;23.65;51.96
43312;BME280;30041;48.300;16.352;2022-08-01T04:10:20;99558.81;;;23.67;52.06
43312;BME280;30041;48.300;16.352;2022-08-01T04:12:45;99553.88;;;23.64;52.01
43312;BME280;30041;48.300;16.352;2022-08-01T04:15:11;99562.84;;;23.65;51.99
43312;BME280;30041;48.300;16.352;2022-08-01T04:17:37;99564.97;;;23.62;52.04
43312;BME280;30041;48.300;16.352;2022-08-01T04:20:03;99564.44;;;23.66;52.25
43312;BME280;30041;48.300;16.352;2022-08-01T04:22:28;99563.88;;;23.63;52.25
43312;BME280;30041;48.300;16.352;2022-08-01T04:24:56;99567.41;;;23.64;52.09
43312;BME280;30041;48.300;16.352;2022-08-01T04:27:27;99569.06;;;23.65;51.81
43312;BME280;30041;48.300;16.352;2022-08-01T04:29:56;99570.69;;;23.66;51.99
43312;BME280;30041;48.300;16.352;2022-08-01T04:32:26;99566.09;;;23.67;52.15
43312;BME280;30041;48.300;16.352;2022-08-01T04:34:55;99572.06;;;23.69;52.94
43312;BME280;30041;48.300;16.352;2022-08-01T04:37:23;99572.72;;;23.54;53.41
43312;BME280;30041;48.300;16.352;2022-08-01T04:39:52;99572.00;;;23.41;54.20
43312;BME280;30041;48.300;16.352;2022-08-01T04:42:18;99576.28;;;23.37;54.32
43312;BME280;30041;48.300;16.352;2022-08-01T04:44:44;99569.19;;;23.31;54.47
43312;BME280;30041;48.300;16.352;2022-08-01T04:47:11;99572.72;;;23.32;54.58
43312;BME280;30041;48.300;16.352;2022-08-01T04:49:37;99577.88;;;23.33;54.59
43312;BME280;30041;48.300;16.352;2022-08-01T04:52:03;99577.03;;;23.33;54.73
43312;BME280;30041;48.300;16.352;2022-08-01T04:54:33;99576.22;;;23.32;54.71
43312;BME280;30041;48.300;16.352;2022-08-01T04:57:00;99574.63;;;23.31;54.98
43312;BME280;30041;48.300;16.352;2022-08-01T04:59:26;99574.63;;;23.31;54.94
43312;BME280;30041;48.300;16.352;2022-08-01T05:01:52;99576.63;;;23.41;54.26
43312;BME280;30041;48.300;16.352;2022-08-01T05:04:18;99570.38;;;23.62;53.66
43312;BME280;30041;48.300;16.352;2022-08-01T05:06:43;99565.25;;;23.66;53.63
43312;BME280;30041;48.300;16.352;2022-08-01T05:09:09;99559.84;;;23.66;53.22
43312;BME280;30041;48.300;16.352;2022-08-01T05:11:35;99568.84;;;23.72;53.07
43312;BME280;30041;48.300;16.352;2022-08-01T05:14:01;99570.22;;;23.74;52.95
43312;BME280;30041;48.300;16.352;2022-08-01T05:16:26;99563.78;;;23.75;52.92
43312;BME280;30041;48.300;16.352;2022-08-01T05:18:52;99571.63;;;23.77;52.87
43312;BME280;30041;48.300;16.352;2022-08-01T05:21:17;99552.69;;;23.77;53.32
43312;BME280;30041;48.300;16.352;2022-08-01T05:23:43;99560.50;;;23.73;53.30
43312;BME280;30041;48.300;16.352;2022-08-01T05:26:10;99565.97;;;23.78;52.88
43312;BME280;30041;48.300;16.352;2022-08-01T05:28:36;99555.56;;;23.92;52.62
43312;BME280;30041;48.300;16.352;2022-08-01T05:31:03;99560.81;;;24.04;51.90
43312;BME280;30041;48.300;16.352;2022-08-01T05:33:29;99567.91;;;24.10;52.19
43312;BME280;30041;48.300;16.352;2022-08-01T05:35:54;99568.44;;;24.07;52.01
43312;BME280;30041;48.300;16.352;2022-08-01T05:38:23;99562.94;;;24.02;52.16
43312;BME280;30041;48.300;16.352;2022-08-01T05:40:49;99569.59;;;24.16;52.18
43312;BME280;30041;48.300;16.352;2022-08-01T05:43:15;99577.25;;;24.24;52.31
43312;BME280;30041;48.300;16.352;2022-08-01T05:45:40;99574.50;;;24.19;52.34
43312;BME280;30041;48.300;16.352;2022-08-01T05:48:06;99587.25;;;24.24;51.93
43312;BME280;30041;48.300;16.352;2022-08-01T05:50:32;99580.72;;;24.20;51.45
43312;BME280;30041;48.300;16.352;2022-08-01T05:52:58;99583.59;;;24.08;51.57
43312;BME280;30041;48.300;16.352;2022-08-01T05:55:24;99577.63;;;24.06;51.73
43312;BME280;30041;48.300;16.352;2022-08-01T05:57:49;99579.50;;;24.06;51.79
43312;BME280;30041;48.300;16.352;2022-08-01T06:00:15;99589.53;;;24.05;52.01
43312;BME280;30041;48.300;16.352;2022-08-01T06:02:44;99580.53;;;23.99;52.05
43312;BME280;30041;48.300;16.352;2022-08-01T06:05:10;99585.94;;;23.99;52.36
43312;BME280;30041;48.300;16.352;2022-08-01T06:07:36;99588.41;;;24.01;52.46
43312;BME280;30041;48.300;16.352;2022-08-01T06:10:02;99580.25;;;23.96;52.63
43312;BME280;30041;48.300;16.352;2022-08-01T06:12:28;99587.28;;;23.97;52.66
43312;BME280;30041;48.300;16.352;2022-08-01T06:14:54;99589.94;;;23.92;52.99
43312;BME280;30041;48.300;16.352;2022-08-01T06:17:20;99593.22;;;23.94;52.89
43312;BME280;30041;48.300;16.352;2022-08-01T06:19:45;99591.56;;;23.93;52.80
43312;BME280;30041;48.300;16.352;2022-08-01T06:22:11;99594.03;;;23.94;52.98
43312;BME280;30041;48.300;16.352;2022-08-01T06:24:37;99597.78;;;23.93;52.65
43312;BME280;30041;48.300;16.352;2022-08-01T06:27:02;99598.63;;;23.94;52.95
43312;BME280;30041;48.300;16.352;2022-08-01T06:29:30;99599.44;;;23.94;53.28
43312;BME280;30041;48.300;16.352;2022-08-01T06:31:56;99603.47;;;23.92;53.38
43312;BME280;30041;48.300;16.352;2022-08-01T06:34:21;99605.66;;;23.95;53.40
43312;BME280;30041;48.300;16.352;2022-08-01T06:36:47;99605.66;;;23.95;53.49
43312;BME280;30041;48.300;16.352;2022-08-01T06:39:13;99608.38;;;23.95;53.23
43312;BME280;30041;48.300;16.352;2022-08-01T06:41:38;99606.47;;;23.95;53.25
43312;BME280;30041;48.300;16.352;2022-08-01T06:44:04;99601.91;;;23.96;53.23
43312;BME280;30041;48.300;16.352;2022-08-01T06:46:30;99610.03;;;23.96;53.60
43312;BME280;30041;48.300;16.352;2022-08-01T06:48:55;99603.19;;;23.93;53.81
43312;BME280;30041;48.300;16.352;2022-08-01T06:51:21;99605.66;;;23.95;53.53
43312;BME280;30041;48.300;16.352;2022-08-01T06:53:47;99601.06;;;23.95;53.40
43312;BME280;30041;48.300;16.352;2022-08-01T06:56:12;99604.34;;;23.97;53.42
43312;BME280;30041;48.300;16.352;2022-08-01T06:58:38;99600.56;;;23.98;53.72
43312;BME280;30041;48.300;16.352;2022-08-01T07:01:05;99602.19;;;23.99;53.39
43312;BME280;30041;48.300;16.352;2022-08-01T07:03:31;99603.00;;;24.00;53.62
43312;BME280;30041;48.300;16.352;2022-08-01T07:05:57;99603.84;;;24.00;53.70
43312;BME280;30041;48.300;16.352;2022-08-01T07:08:23;99597.59;;;24.00;53.40
43312;BME280;30041;48.300;16.352;2022-08-01T07:10:48;99603.84;;;24.00;53.28
43312;BME280;30041;48.300;16.352;2022-08-01T07:13:14;99602.75;;;24.01;52.66
43312;BME280;30041;48.300;16.352;2022-08-01T07:15:40;99606.53;;;24.00;52.75
43312;BME280;30041;48.300;16.352;2022-08-01T07:18:06;99605.47;;;24.01;52.62
43312;BME280;30041;48.300;16.352;2022-08-01T07:20:34;99606.84;;;24.04;52.18
43312;BME280;30041;48.300;16.352;2022-08-01T07:23:02;99598.72;;;24.04;52.22
43312;BME280;30041;48.300;16.352;2022-08-01T07:25:28;99596.56;;;24.06;52.30
43312;BME280;30041;48.300;16.352;2022-08-01T07:27:53;99601.75;;;24.08;52.14
43312;BME280;30041;48.300;16.352;2022-08-01T07:30:19;99612.03;;;24.11;52.03
43312;BME280;30041;48.300;16.352;2022-08-01T07:32:45;99607.19;;;24.13;51.90
43312;BME280;30041;48.300;16.352;2022-08-01T07:35:11;99613.16;;;24.15;52.07
43312;BME280;30041;48.300;16.352;2022-08-01T07:37:36;99609.94;;;24.18;51.70
43312;BME280;30041;48.300;16.352;2022-08-01T07:40:03;99612.41;;;24.19;51.51
43312;BME280;30041;48.300;16.352;2022-08-01T07:42:29;99603.22;;;24.20;51.88
43312;BME280;30041;48.300;16.352;2022-08-01T07:44:54;99610.50;;;24.20;51.63
43312;BME280;30041;48.300;16.352;2022-08-01T07:47:24;99614.06;;;24.20;51.69
43312;BME280;30041;48.300;16.352;2022-08-01T07:49:50;99615.69;;;24.21;51.71
43312;BME280;30041;48.300;16.352;2022-08-01T07:52:16;99619.19;;;24.22;51.83
43312;BME280;30041;48.300;16.352;2022-08-01T07:54:42;99618.13;;;24.23;51.52
43312;BME280;30041;48.300;16.352;2022-08-01T07:57:07;99629.25;;;24.27;51.58
43312;BME280;30041;48.300;16.352;2022-08-01T07:59:34;99625.50;;;24.28;51.32
43312;BME280;30041;48.300;16.352;2022-08-01T08:01:59;99626.28;;;24.28;51.43
43312;BME280;30041;48.300;16.352;2022-08-01T08:04:26;99629.81;;;24.29;51.16
43312;BME280;30041;48.300;16.352;2022-08-01T08:06:52;99627.66;;;24.31;51.28
43312;BME280;30041;48.300;16.352;2022-08-01T08:09:18;99626.63;;;24.32;51.17
43312;BME280;30041;48.300;16.352;2022-08-01T08:11:44;99628.25;;;24.33;51.30
43312;BME280;30041;48.300;16.352;2022-08-01T08:14:11;99629.88;;;24.34;51.18
43312;BME280;30041;48.300;16.352;2022-08-01T08:16:37;99628.25;;;24.33;51.06
43312;BME280;30041;48.300;16.352;2022-08-01T08:19:03;99629.88;;;24.34;51.21
43312;BME280;30041;48.300;16.352;2022-08-01T08:21:29;99625.28;;;24.34;51.33
43312;BME280;30041;48.300;16.352;2022-08-01T08:23:54;99636.94;;;24.35;50.93
43312;BME280;30041;48.300;16.352;2022-08-01T08:26:20;99624.19;;;24.35;51.26
43312;BME280;30041;48.300;16.352;2022-08-01T08:28:46;99625.28;;;24.34;51.01
43312;BME280;30041;48.300;16.352;2022-08-01T08:31:11;99629.38;;;24.37;51.18
43312;BME280;30041;48.300;16.352;2022-08-01T08:33:37;99621.22;;;24.37;51.32
43312;BME280;30041;48.300;16.352;2022-08-01T08:36:03;99621.44;;;24.30;51.57
43312;BME280;30041;48.300;16.352;2022-08-01T08:38:28;99629.00;;;24.28;51.54
43312;BME280;30041;48.300;16.352;2022-08-01T08:40:54;99628.69;;;24.24;52.04
43312;BME280;30041;48.300;16.352;2022-08-01T08:43:21;99629.78;;;24.23;51.68
43312;BME280;30041;48.300;16.352;2022-08-01T08:45:47;99639.22;;;24.21;51.70
43312;BME280;30041;48.300;16.352;2022-08-01T08:48:13;99628.16;;;24.22;51.70
43312;BME280;30041;48.300;16.352;2022-08-01T08:50:41;99638.72;;;24.24;51.67
43312;BME280;30041;48.300;16.352;2022-08-01T08:53:09;99631.13;;;24.21;51.59
43312;BME280;30041;48.300;16.352;2022-08-01T08:55:35;99628.97;;;24.23;51.66
43312;BME280;30041;48.300;16.352;2022-08-01T08:58:02;99636.28;;;24.22;51.76
43312;BME280;30041;48.300;16.352;2022-08-01T09:00:27;99639.53;;;24.24;51.80
43312;BME280;30041;48.300;16.352;2022-08-01T09:02:53;99633.28;;;24.24;51.59
43312;BME280;30041;48.300;16.352;2022-08-01T09:05:18;99634.09;;;24.24;51.14
43312;BME280;30041;48.300;16.352;2022-08-01T09:07:44;99637.66;;;24.25;51.07
43312;BME280;30041;48.300;16.352;2022-08-01T09:10:10;99636.56;;;24.26;51.13
43312;BME280;30041;48.300;16.352;2022-08-01T09:12:36;99642.22;;;24.24;51.32
43312;BME280;30041;48.300;16.352;2022-08-01T09:15:02;99644.44;;;24.28;50.99
43312;BME280;30041;48.300;16.352;2022-08-01T09:17:39;99638.47;;;24.26;51.20
43312;BME280;30041;48.300;16.352;2022-08-01T09:20:05;99647.41;;;24.26;51.18
43312;BME280;30041;48.300;16.352;2022-08-01T09:22:33;99656.34;;;24.27;51.17
43312;BME280;30041;48.300;16.352;2022-08-01T09:25:09;99653.06;;;24.24;51.08
43312;BME280;30041;48.300;16.352;2022-08-01T09:27:37;99658.00;;;24.28;51.11
43312;BME280;30041;48.300;16.352;2022-08-01T09:30:17;99659.81;;;24.22;51.14
43312;BME280;30041;48.300;16.352;2022-08-01T09:33:00;99660.66;;;24.22;50.98
43312;BME280;30041;48.300;16.352;2022-08-01T09:35:28;99660.13;;;24.26;50.94
43312;BME280;30041;48.300;16.352;2022-08-01T09:38:21;99657.19;;;24.27;51.13
43312;BME280;30041;48.300;16.352;2022-08-01T09:40:50;99658.56;;;24.30;50.96
43312;BME280;30041;48.300;16.352;2022-08-01T09:43:17;99652.56;;;24.28;51.20
43312;BME280;30041;48.300;16.352;2022-08-01T09:45:43;99657.41;;;24.26;51.41
43312;BME280;30041;48.300;16.352;2022-08-01T09:48:09;99649.06;;;24.27;51.12
43312;BME280;30041;48.300;16.352;2022-08-01T09:50:48;99648.22;;;24.27;51.00
43312;BME280;30041;48.300;16.352;2022-08-01T09:53:15;99658.22;;;24.26;51.10
43312;BME280;30041;48.300;16.352;2022-08-01T09:55:42;99652.81;;;24.26;51.30
43312;BME280;30041;48.300;16.352;2022-08-01T09:58:08;99657.19;;;24.27;51.03
43312;BME280;30041;48.300;16.352;2022-08-01T10:00:35;99653.63;;;24.27;51.13
43312;BME280;30041;48.300;16.352;2022-08-01T10:03:22;99652.56;;;24.28;51.19
43312;BME280;30041;48.300;16.352;2022-08-01T10:05:48;99656.34;;;24.27;51.20
43312;BME280;30041;48.300;16.352;2022-08-01T10:08:15;99648.78;;;24.29;51.13
43312;BME280;30041;48.300;16.352;2022-08-01T10:10:40;99650.44;;;24.30;51.25
43312;BME280;30041;48.300;16.352;2022-08-01T10:13:07;99644.19;;;24.29;51.44
43312;BME280;30041;48.300;16.352;2022-08-01T10:15:34;99653.13;;;24.30;51.28
43312;BME280;30041;48.300;16.352;2022-08-01T10:18:02;99641.22;;;24.31;51.23
43312;BME280;30041;48.300;16.352;2022-08-01T10:20:31;99636.88;;;24.30;51.35
43312;BME280;30041;48.300;16.352;2022-08-01T10:23:03;99645.00;;;24.30;51.04
43312;BME280;30041;48.300;16.352;2022-08-01T10:25:35;99634.97;;;24.30;51.31
43312;BME280;30041;48.300;16.352;2022-08-01T10:28:01;99635.22;;;24.29;51.40
43312;BME280;30041;48.300;16.352;2022-08-01T10:30:32;99636.06;;;24.29;51.24
43312;BME280;30041;48.300;16.352;2022-08-01T10:32:58;99635.78;;;24.31;51.36
43312;BME280;30041;48.300;16.352;2022-08-01T10:35:24;99634.66;;;24.27;51.28
43312;BME280;30041;48.300;16.352;2022-08-01T10:37:50;99629.31;;;24.32;50.97
43312;BME280;30041;48.300;16.352;2022-08-01T10:40:15;99625.78;;;24.31;51.22
43312;BME280;30041;48.300;16.352;2022-08-01T10:42:45;99628.25;;;24.33;51.14
43312;BME280;30041;48.300;16.352;2022-08-01T10:45:13;99619.31;;;24.32;50.95
43312;BME280;30041;48.300;16.352;2022-08-01T10:50:34;99627.09;;;24.29;51.01
43312;BME280;30041;48.300;16.352;2022-08-01T10:53:22;99616.84;;;24.31;51.02
43312;BME280;30041;48.300;16.352;2022-08-01T10:58:25;99612.22;;;24.31;51.18
43312;BME280;30041;48.300;16.352;2022-08-01T11:01:23;99611.41;;;24.31;51.30
43312;BME280;30041;48.300;16.352;2022-08-01T11:03:56;99613.06;;;24.32;51.00
43312;BME280;30041;48.300;16.352;2022-08-01T11:06:39;99609.28;;;24.33;51.06
43312;BME280;30041;48.300;16.352;2022-08-01T11:09:27;99604.38;;;24.30;51.44
43312;BME280;30041;48.300;16.352;2022-08-01T11:12:10;99614.13;;;24.31;51.34
43312;BME280;30041;48.300;16.352;2022-08-01T11:17:36;99601.97;;;24.33;51.08
43312;BME280;30041;48.300;16.352;2022-08-01T11:20:08;99588.69;;;24.32;51.10
43312;BME280;30041;48.300;16.352;2022-08-01T11:25:25;99591.97;;;24.34;50.93
43312;BME280;30041;48.300;16.352;2022-08-01T11:33:49;99581.94;;;24.34;50.42
43312;BME280;30041;48.300;16.352;2022-08-01T11:41:22;99576.53;;;24.34;50.04
43312;BME280;30041;48.300;16.352;2022-08-01T11:46:48;99575.72;;;24.34;49.81
43312;BME280;30041;48.300;16.352;2022-08-01T11:49:44;99572.16;;;24.33;49.27
43312;BME280;30041;48.300;16.352;2022-08-01T11:52:12;99581.13;;;24.34;49.43
43312;BME280;30041;48.300;16.352;2022-08-01T11:55:05;99593.34;;;24.36;49.31
43312;BME280;30041;48.300;16.352;2022-08-01T11:57:32;99591.44;;;24.37;49.02
43312;BME280;30041;48.300;16.352;2022-08-01T11:59:59;99604.16;;;24.36;49.23
43312;BME280;30041;48.300;16.352;2022-08-01T12:02:26;99607.69;;;24.37;48.89
43312;BME280;30041;48.300;16.352;2022-08-01T12:04:57;99606.88;;;24.36;48.77
43312;BME280;30041;48.300;16.352;2022-08-01T12:07:26;99603.91;;;24.38;48.97
43312;BME280;30041;48.300;16.352;2022-08-01T12:10:10;99589.53;;;24.37;49.09
43312;BME280;30041;48.300;16.352;2022-08-01T12:12:37;99591.44;;;24.37;49.04
43312;BME280;30041;48.300;16.352;2022-08-01T12:15:08;99602.84;;;24.39;49.07
43312;BME280;30041;48.300;16.352;2022-08-01T12:17:40;99609.31;;;24.38;48.99
43312;BME280;30041;48.300;16.352;2022-08-01T12:20:11;99611.78;;;24.39;48.99
43312;BME280;30041;48.300;16.352;2022-08-01T12:22:37;99611.78;;;24.39;49.20
43312;BME280;30041;48.300;16.352;2022-08-01T12:25:11;99616.13;;;24.40;49.15
43312;BME280;30041;48.300;16.352;2022-08-01T12:27:39;99618.84;;;24.40;49.48
43312;BME280;30041;48.300;16.352;2022-08-01T12:30:25;99619.34;;;24.37;49.62
43312;BME280;30041;48.300;16.352;2022-08-01T12:32:52;99604.22;;;24.41;49.74
43312;BME280;30041;48.300;16.352;2022-08-01T12:35:20;99599.03;;;24.40;49.80
43312;BME280;30041;48.300;16.352;2022-08-01T12:37:52;99608.25;;;24.39;50.18
43312;BME280;30041;48.300;16.352;2022-08-01T12:40:20;99614.72;;;24.38;50.50
43312;BME280;30041;48.300;16.352;2022-08-01T12:42:50;99607.69;;;24.37;50.94
43312;BME280;30041;48.300;16.352;2022-08-01T12:45:19;99606.88;;;24.36;50.84
43312;BME280;30041;48.300;16.352;2022-08-01T12:47:45;99607.69;;;24.37;51.01
43312;BME280;30041;48.300;16.352;2022-08-01T12:50:16;99599.81;;;24.35;51.01
43312;BME280;30041;48.300;16.352;2022-08-01T12:52:44;99598.19;;;24.34;51.16
43312;BME280;30041;48.300;16.352;2022-08-01T12:55:19;99588.16;;;24.35;50.83
43312;BME280;30041;48.300;16.352;2022-08-01T12:57:47;99591.69;;;24.35;50.88
43312;BME280;30041;48.300;16.352;2022-08-01T13:00:14;99587.66;;;24.38;50.83
43312;BME280;30041;48.300;16.352;2022-08-01T13:02:41;99567.63;;;24.39;50.95
43312;BME280;30041;48.300;16.352;2022-08-01T13:05:08;99567.88;;;24.37;50.97
43312;BME280;30041;48.300;16.352;2022-08-01T13:07:48;99553.53;;;24.37;51.23
43312;BME280;30041;48.300;16.352;2022-08-01T13:10:23;99548.09;;;24.37;51.12
43312;BME280;30041;48.300;16.352;2022-08-01T13:12:55;99551.13;;;24.40;51.28
43312;BME280;30041;48.300;16.352;2022-08-01T13:15:29;99555.69;;;24.40;51.22
43312;BME280;30041;48.300;16.352;2022-08-01T13:17:55;99550.56;;;24.38;51.28
43312;BME280;30041;48.300;16.352;2022-08-01T13:20:22;99547.84;;;24.38;50.98
43312;BME280;30041;48.300;16.352;2022-08-01T13:22:48;99547.56;;;24.40;51.28
43312;BME280;30041;48.300;16.352;2022-08-01T13:25:15;99541.34;;;24.39;51.48